Time;durP1;ratioP1;P1;durP2;ratioP2;P2;SDS_P1;SDS_P2;PMS_P1;PMS_P2;Temp;Humidity;BMP_temperature;BMP_pressure;BME280_temperature;BME280_humidity;BME280_pressure;Samples;Min_cycle;Max_cycle;Signal;HPM_P1;HPM_P2
2023/10/31 00:02:14;;;;;;;15.33;8.27;;;;;;;12.78;84.89;99207.56;5053730;28;20669;-65
2023/10/31 00:04:42;;;;;;;16.33;8.10;;;;;;;12.77;84.65;99195.53;5053553;28;20697;-66
2023/10/31 00:07:11;;;;;;;13.17;7.37;;;;;;;12.74;84.53;99187.88;5053625;28;20312;-68
2023/10/31 00:09:39;;;;;;;11.03;8.03;;;;;;;12.75;84.74;99182.66;5053104;28;20224;-68
2023/10/31 00:12:07;;;;;;;14.17;8.07;;;;;;;12.71;84.71;99181.09;5053302;28;20672;-67
2023/10/31 00:14:35;;;;;;;12.53;7.57;;;;;;;12.66;84.69;99176.97;5060594;28;20217;-67
2023/10/31 00:17:05;;;;;;;12.47;7.93;;;;;;;12.63;84.77;99177.94;5052844;28;20237;-66
2023/10/31 00:19:33;;;;;;;10.37;7.37;;;;;;;12.59;85.34;99171.16;5052787;28;20201;-67
2023/10/31 00:22:00;;;;;;;13.10;7.57;;;;;;;12.59;85.07;99171.16;5052899;28;20264;-68
2023/10/31 00:24:28;;;;;;;10.13;7.93;;;;;;;12.57;84.96;99166.03;5053311;28;20572;-66
2023/10/31 00:26:56;;;;;;;11.70;7.40;;;;;;;12.58;85.39;99156.53;5039424;28;20570;-68
2023/10/31 00:29:24;;;;;;;13.47;7.43;;;;;;;12.58;85.32;99162.56;5052761;28;20210;-62
2023/10/31 00:31:52;;;;;;;9.23;6.77;;;;;;;12.59;85.44;99153.06;5052450;28;20210;-63
2023/10/31 00:34:22;;;;;;;9.93;7.17;;;;;;;12.58;84.97;99159.97;5052425;28;20245;-62
2023/10/31 00:36:50;;;;;;;11.67;6.93;;;;;;;12.56;85.10;99154.03;5052492;28;20230;-62
2023/10/31 00:39:18;;;;;;;15.10;7.80;;;;;;;12.58;85.13;99153.97;5052392;28;20288;-66
2023/10/31 00:41:46;;;;;;;10.83;7.30;;;;;;;12.57;85.35;99142.78;5052775;28;20308;-67
2023/10/31 00:44:14;;;;;;;8.90;6.50;;;;;;;12.57;85.16;99147.94;5051028;28;20672;-62
2023/10/31 00:46:43;;;;;;;11.80;7.17;;;;;;;12.56;84.87;99153.19;5051621;28;20220;-62
2023/10/31 00:49:11;;;;;;;10.23;6.50;;;;;;;12.56;85.03;99141.09;5056365;28;20224;-63
2023/10/31 00:51:41;;;;;;;10.50;7.03;;;;;;;12.56;85.04;99130.78;5052081;28;20206;-65
2023/10/31 00:54:11;;;;;;;9.67;6.57;;;;;;;12.56;84.83;99124.75;5051986;28;20244;-62
2023/10/31 00:56:39;;;;;;;8.93;6.33;;;;;;;12.56;84.53;99125.59;5052104;28;20237;-62
2023/10/31 00:59:07;;;;;;;8.10;5.60;;;;;;;12.56;84.51;99117.84;5051737;28;20205;-59
2023/10/31 01:01:35;;;;;;;10.97;6.53;;;;;;;12.54;85.00;99114.47;5047146;28;20309;-61
2023/10/31 01:04:03;;;;;;;10.27;6.30;;;;;;;12.54;84.86;99113.63;5046063;28;20583;-61
2023/10/31 01:06:31;;;;;;;10.97;6.57;;;;;;;12.54;84.97;99098.13;5051739;28;20261;-63
2023/10/31 01:09:01;;;;;;;8.27;5.77;;;;;;;12.53;84.53;99093.84;5051937;28;20213;-62
2023/10/31 01:11:29;;;;;;;11.10;5.97;;;;;;;12.54;84.73;99082.63;5051936;28;20828;-60
2023/10/31 01:13:57;;;;;;;7.90;6.03;;;;;;;12.52;84.34;99079.25;5051303;28;20653;-63
2023/10/31 01:16:25;;;;;;;9.57;6.53;;;;;;;12.47;84.68;99069.06;5051247;28;20202;-62
2023/10/31 01:18:53;;;;;;;10.37;6.50;;;;;;;12.47;84.38;99060.47;5051588;28;20616;-61
2023/10/31 01:21:21;;;;;;;8.53;5.80;;;;;;;12.46;84.83;99057.03;5050293;28;20233;-61
2023/10/31 01:23:49;;;;;;;8.97;5.83;;;;;;;12.44;84.91;99058.00;5051503;28;20233;-61
2023/10/31 01:26:18;;;;;;;10.03;6.23;;;;;;;12.42;84.93;99050.31;5051487;28;20209;-61
2023/10/31 01:28:46;;;;;;;8.10;6.10;;;;;;;12.38;85.18;99038.41;5049598;28;20285;-62
2023/10/31 01:31:14;;;;;;;14.23;5.93;;;;;;;12.35;85.04;99038.50;5051514;28;20296;-62
2023/10/31 01:33:46;;;;;;;8.10;5.67;;;;;;;12.35;85.65;99046.25;5051490;28;20681;-62
2023/10/31 01:36:14;;;;;;;10.90;5.80;;;;;;;12.33;85.28;99054.06;5051400;28;20283;-63
2023/10/31 01:38:43;;;;;;;8.13;6.10;;;;;;;12.31;85.55;99047.25;5051178;28;20198;-61
2023/10/31 01:41:13;;;;;;;10.70;6.13;;;;;;;12.25;85.47;99055.19;5051471;28;20216;-63
2023/10/31 01:43:43;;;;;;;9.93;5.73;;;;;;;12.17;85.83;99047.72;5051337;28;20202;-62
2023/10/31 01:46:11;;;;;;;13.20;6.57;;;;;;;12.14;86.78;99049.56;5050968;28;20198;-63
2023/10/31 01:48:39;;;;;;;9.77;6.13;;;;;;;12.15;86.24;99057.28;5051310;28;20684;-61
2023/10/31 01:51:07;;;;;;;8.13;5.90;;;;;;;12.13;86.66;99055.63;5050921;28;20202;-63
2023/10/31 01:53:36;;;;;;;10.43;5.93;;;;;;;12.13;86.56;99029.81;5050980;28;20252;-62
2023/10/31 01:56:05;;;;;;;7.17;5.93;;;;;;;12.12;86.55;99010.88;5051049;28;20653;-60
2023/10/31 01:58:36;;;;;;;9.67;6.37;;;;;;;12.08;87.21;98998.97;5050749;28;20201;-63
2023/10/31 02:01:06;;;;;;;9.23;5.83;;;;;;;12.05;87.04;98974.09;5048169;28;20596;-62
2023/10/31 02:03:34;;;;;;;7.37;5.83;;;;;;;12.02;87.24;98963.88;5049760;28;20237;-62
2023/10/31 02:06:03;;;;;;;8.40;5.70;;;;;;;11.98;87.35;98954.56;5050610;28;20210;-62
2023/10/31 02:08:31;;;;;;;12.57;6.20;;;;;;;12.02;87.41;98944.97;5051099;28;20309;-62
2023/10/31 02:10:59;;;;;;;8.83;6.43;;;;;;;12.05;87.62;98939.69;5050983;28;20688;-64
2023/10/31 02:13:27;;;;;;;9.57;5.63;;;;;;;12.08;87.45;98931.84;5051058;28;20226;-61
2023/10/31 02:15:55;;;;;;;7.53;5.27;;;;;;;12.13;87.34;98934.25;5050723;28;20202;-59
2023/10/31 02:18:24;;;;;;;8.50;6.27;;;;;;;12.17;87.65;98935.84;5050554;28;20229;-64
2023/10/31 02:20:52;;;;;;;8.43;5.40;;;;;;;12.18;87.46;98928.03;5050470;28;20217;-65
2023/10/31 02:23:21;;;;;;;7.53;5.23;;;;;;;12.18;86.85;98927.19;5050730;28;20194;-62
2023/10/31 02:25:49;;;;;;;10.60;6.03;;;;;;;12.20;87.17;98920.25;5050546;28;20197;-62
2023/10/31 02:28:17;;;;;;;8.80;5.43;;;;;;;12.18;87.04;98920.28;5050403;28;20265;-62
2023/10/31 02:30:46;;;;;;;7.47;5.77;;;;;;;12.17;86.82;98917.75;5050859;28;20209;-61
2023/10/31 02:33:14;;;;;;;8.73;5.53;;;;;;;12.19;87.43;98910.81;5054474;28;20679;-69
2023/10/31 02:35:42;;;;;;;7.27;5.60;;;;;;;12.20;87.46;98907.31;5054970;28;20673;-61
2023/10/31 02:38:10;;;;;;;10.47;5.50;;;;;;;12.21;87.24;98902.09;5054494;28;20205;-61
2023/10/31 02:40:39;;;;;;;7.53;4.87;;;;;;;12.22;86.73;98897.75;5054686;28;20202;-62
2023/10/31 02:43:07;;;;;;;9.13;5.70;;;;;;;12.26;87.00;98904.50;5054484;28;20738;-61
2023/10/31 02:45:35;;;;;;;7.17;5.30;;;;;;;12.26;86.53;98901.91;5054273;28;20201;-61
2023/10/31 02:48:03;;;;;;;10.20;5.53;;;;;;;12.28;86.54;98887.22;5054631;28;20210;-64
2023/10/31 02:50:31;;;;;;;8.23;5.30;;;;;;;12.29;86.53;98879.41;5054926;28;20542;-66
2023/10/31 02:52:59;;;;;;;8.10;5.30;;;;;;;12.29;86.78;98884.56;5054457;28;20236;-66
2023/10/31 02:55:27;;;;;;;7.07;5.17;;;;;;;12.31;86.88;98880.19;5054316;28;20225;-65
2023/10/31 02:57:56;;;;;;;7.77;5.27;;;;;;;12.33;86.85;98874.97;5053551;28;20249;-67
2023/10/31 03:00:25;;;;;;;8.73;5.57;;;;;;;12.33;86.50;98872.38;5054075;28;20293;-69
2023/10/31 03:02:53;;;;;;;12.63;5.73;;;;;;;12.37;86.13;98857.59;5054130;28;20564;-67
2023/10/31 03:05:21;;;;;;;8.10;5.40;;;;;;;12.37;86.19;98849.84;5054183;28;20226;-67
2023/10/31 03:07:49;;;;;;;8.90;5.03;;;;;;;12.40;86.48;98839.41;5054224;28;20257;-66
2023/10/31 03:10:17;;;;;;;6.77;5.10;;;;;;;12.42;86.20;98832.47;5054121;28;20226;-60
2023/10/31 03:12:46;;;;;;;8.10;4.50;;;;;;;12.42;85.96;98837.63;5052251;28;20637;-63
2023/10/31 03:15:15;;;;;;;9.90;5.07;;;;;;;12.45;85.84;98843.53;5041780;28;20244;-62
2023/10/31 03:17:43;;;;;;;9.27;5.53;;;;;;;12.47;86.15;98841.69;5052393;28;21036;-61
2023/10/31 03:20:12;;;;;;;6.23;4.80;;;;;;;12.50;85.86;98843.34;5054194;28;20673;-60
2023/10/31 03:22:40;;;;;;;11.60;5.20;;;;;;;12.50;85.49;98831.25;5054191;28;20202;-68
2023/10/31 03:25:08;;;;;;;9.60;5.17;;;;;;;12.51;85.34;98838.09;5053951;28;20271;-69
2023/10/31 03:27:36;;;;;;;7.30;4.67;;;;;;;12.53;85.85;98836.31;5053526;28;20690;-68
2023/10/31 03:30:05;;;;;;;7.43;4.40;;;;;;;12.53;85.80;98831.13;5053983;28;20206;-67
2023/10/31 03:32:34;;;;;;;6.27;4.73;;;;;;;12.52;85.85;98819.13;5053607;28;20203;-68
2023/10/31 03:35:02;;;;;;;7.63;4.73;;;;;;;12.52;85.51;98813.13;5053880;28;20202;-61
2023/10/31 03:37:30;;;;;;;7.53;4.17;;;;;;;12.51;85.41;98811.41;5054119;28;20622;-64
2023/10/31 03:39:58;;;;;;;6.43;4.73;;;;;;;12.52;85.26;98824.31;5053693;28;20719;-63
2023/10/31 03:42:26;;;;;;;6.80;4.33;;;;;;;12.52;85.71;98808.78;5054043;28;20202;-70
2023/10/31 03:44:54;;;;;;;8.40;4.77;;;;;;;12.54;85.64;98796.63;5052737;28;20212;-67
2023/10/31 03:47:22;;;;;;;8.50;4.13;;;;;;;12.57;85.46;98781.03;5053450;28;20282;-71
2023/10/31 03:49:51;;;;;;;9.97;4.33;;;;;;;12.61;84.83;98770.56;5053352;28;20249;-67
2023/10/31 03:52:19;;;;;;;8.23;4.17;;;;;;;12.62;85.23;98767.06;5053516;28;20561;-67
2023/10/31 03:54:49;;;;;;;7.17;4.30;;;;;;;12.61;84.90;98752.47;5053644;28;20734;-68
2023/10/31 03:57:20;;;;;;;6.07;4.43;;;;;;;12.63;84.50;98761.00;5052511;28;20210;-67
2023/10/31 03:59:50;;;;;;;8.87;5.00;;;;;;;12.67;84.42;98762.56;5053082;28;20208;-67
2023/10/31 04:02:20;;;;;;;10.87;4.17;;;;;;;12.69;84.65;98747.84;5053180;28;20213;-67
2023/10/31 04:04:50;;;;;;;6.00;4.17;;;;;;;12.71;84.06;98751.22;5053515;28;20645;-61
2023/10/31 04:07:19;;;;;;;7.97;4.37;;;;;;;12.74;84.34;98745.88;5053544;28;20292;-70
2023/10/31 04:09:48;;;;;;;9.10;4.20;;;;;;;12.77;83.93;98743.19;5053004;28;20218;-66
2023/10/31 04:12:17;;;;;;;9.23;4.37;;;;;;;12.78;83.74;98734.53;5053247;28;20209;-71
2023/10/31 04:14:46;;;;;;;5.93;3.80;;;;;;;12.80;83.38;98727.56;5052906;28;20256;-67
2023/10/31 04:17:14;;;;;;;6.50;3.97;;;;;;;12.81;83.76;98736.97;5053029;28;20349;-67
2023/10/31 04:19:42;;;;;;;7.37;3.87;;;;;;;12.88;83.36;98735.81;5053638;28;20224;-66
2023/10/31 04:22:10;;;;;;;6.90;3.80;;;;;;;12.92;82.93;98734.78;5053257;28;20283;-68
2023/10/31 04:24:39;;;;;;;6.73;3.50;;;;;;;12.93;82.75;98714.97;5052685;28;20241;-68
2023/10/31 04:27:07;;;;;;;7.00;3.60;;;;;;;12.94;82.85;98696.78;5052368;28;20198;-67
2023/10/31 04:29:35;;;;;;;5.67;3.63;;;;;;;12.96;82.22;98702.75;5052609;28;20271;-68
2023/10/31 04:32:03;;;;;;;7.53;3.77;;;;;;;13.00;82.53;98699.13;5052578;28;20210;-66
2023/10/31 04:34:31;;;;;;;4.50;3.33;;;;;;;13.04;82.23;98712.75;5052936;28;20740;-68
2023/10/31 04:36:59;;;;;;;5.63;3.67;;;;;;;13.10;82.12;98706.47;5052595;28;20202;-67
2023/10/31 04:39:27;;;;;;;7.03;3.70;;;;;;;13.14;81.19;98708.00;5052487;28;20229;-68
2023/10/31 04:41:56;;;;;;;5.03;3.40;;;;;;;13.16;81.25;98688.09;5052333;28;20206;-67
2023/10/31 04:44:24;;;;;;;4.53;3.13;;;;;;;13.18;80.89;98684.56;5052509;28;20221;-69
2023/10/31 04:46:52;;;;;;;7.27;3.73;;;;;;;13.20;80.58;98674.13;5052275;28;20209;-66
2023/10/31 04:49:20;;;;;;;6.47;3.43;;;;;;;13.24;80.26;98663.59;5052555;28;20214;-68
2023/10/31 04:51:49;;;;;;;4.83;3.50;;;;;;;13.27;80.38;98653.13;5052298;28;20226;-67
2023/10/31 04:54:17;;;;;;;7.30;3.60;;;;;;;13.31;79.96;98656.41;5052007;28;20201;-67
2023/10/31 04:56:45;;;;;;;6.30;3.70;;;;;;;13.32;79.63;98645.16;5050569;28;20206;-67
2023/10/31 04:59:15;;;;;;;5.80;3.33;;;;;;;13.38;79.17;98659.56;5052383;28;20276;-69
2023/10/31 05:01:49;;;;;;;7.37;3.03;;;;;;;13.42;78.88;98650.75;5050537;28;20304;-67
2023/10/31 05:04:17;;;;;;;6.00;3.07;;;;;;;13.43;78.10;98637.75;5052299;28;20201;-67
2023/10/31 05:06:46;;;;;;;7.57;3.60;;;;;;;13.47;77.86;98639.28;5052348;28;20202;-67
2023/10/31 05:09:15;;;;;;;6.17;3.47;;;;;;;13.49;78.08;98632.28;5052028;28;20249;-60
2023/10/31 05:11:43;;;;;;;5.40;3.50;;;;;;;13.52;77.76;98621.81;5051874;28;20242;-62
2023/10/31 05:14:11;;;;;;;4.57;2.97;;;;;;;13.56;77.46;98606.97;5052018;28;20556;-61
2023/10/31 05:16:44;;;;;;;7.03;3.63;;;;;;;13.58;77.36;98599.13;5051659;28;20234;-63
2023/10/31 05:19:12;;;;;;;6.63;3.50;;;;;;;13.60;77.13;98610.25;5051680;28;20255;-62
2023/10/31 05:21:40;;;;;;;8.10;3.60;;;;;;;13.60;76.69;98598.16;5051382;28;20224;-63
2023/10/31 05:24:09;;;;;;;5.73;2.83;;;;;;;13.63;76.97;98602.34;5051442;28;20206;-63
2023/10/31 05:26:36;;;;;;;7.00;3.67;;;;;;;13.65;76.54;98608.28;5051239;28;20237;-62
2023/10/31 05:29:05;;;;;;;4.23;2.70;;;;;;;13.69;76.11;98609.81;5051428;28;20221;-62
2023/10/31 05:31:33;;;;;;;5.87;3.07;;;;;;;13.69;76.57;98597.72;5050704;28;20202;-61
2023/10/31 05:34:03;;;;;;;7.03;3.30;;;;;;;13.74;75.93;98602.69;5051502;28;20256;-61
2023/10/31 05:36:31;;;;;;;7.40;3.50;;;;;;;13.75;75.80;98592.25;5051485;28;20256;-61
2023/10/31 05:38:59;;;;;;;6.93;3.23;;;;;;;13.75;75.76;98592.25;5051428;28;20193;-63
2023/10/31 05:41:27;;;;;;;5.20;3.27;;;;;;;13.76;75.74;98593.91;5051174;28;20214;-61
2023/10/31 05:43:55;;;;;;;6.87;3.17;;;;;;;13.77;75.51;98593.03;5051208;28;20218;-64
2023/10/31 05:46:26;;;;;;;6.87;3.30;;;;;;;13.81;75.54;98604.06;5051453;28;20220;-62
2023/10/31 05:48:54;;;;;;;8.00;3.40;;;;;;;13.83;75.16;98604.81;5051383;28;20335;-63
2023/10/31 05:51:25;;;;;;;6.97;3.37;;;;;;;13.84;74.82;98601.31;5051572;28;20692;-63
2023/10/31 05:53:53;;;;;;;7.33;3.40;;;;;;;13.86;74.64;98615.03;5051353;28;20241;-64
2023/10/31 05:56:21;;;;;;;6.87;3.30;;;;;;;13.90;74.58;98603.63;5051106;28;20290;-62
2023/10/31 05:58:49;;;;;;;7.50;3.60;;;;;;;13.93;73.97;98598.28;5051576;28;20285;-61
2023/10/31 06:01:17;;;;;;;5.97;2.70;;;;;;;13.96;74.03;98595.56;5051118;28;20217;-62
2023/10/31 06:03:45;;;;;;;4.80;3.10;;;;;;;13.98;73.96;98590.28;5054694;28;20209;-62
2023/10/31 06:06:14;;;;;;;4.67;2.77;;;;;;;14.01;73.63;98588.41;5064006;28;20202;-63
2023/10/31 06:08:43;;;;;;;5.03;2.70;;;;;;;14.04;73.84;98581.41;5050421;28;20554;-62
2023/10/31 06:11:12;;;;;;;6.33;3.10;;;;;;;14.04;73.31;98571.88;5050941;28;20217;-63
2023/10/31 06:13:41;;;;;;;7.77;2.70;;;;;;;14.08;73.33;98581.16;5051253;28;20201;-62
2023/10/31 06:16:09;;;;;;;3.77;2.77;;;;;;;14.12;72.80;98600.00;5050917;28;20274;-61
2023/10/31 06:18:39;;;;;;;5.50;3.30;;;;;;;14.14;72.91;98608.50;5050958;28;20731;-61
2023/10/31 06:21:09;;;;;;;6.03;2.90;;;;;;;14.17;72.30;98583.28;5051279;28;20276;-69
2023/10/31 06:23:37;;;;;;;8.23;3.00;;;;;;;14.23;71.53;98601.13;5050904;28;20682;-66
2023/10/31 06:26:06;;;;;;;6.90;3.07;;;;;;;14.27;71.65;98588.88;5050763;28;20300;-63
2023/10/31 06:28:36;;;;;;;6.27;3.23;;;;;;;14.33;71.63;98606.72;5053513;28;20198;-62
2023/10/31 06:31:12;;;;;;;4.17;2.63;;;;;;;14.35;71.33;98594.50;5057398;28;20217;-64
2023/10/31 06:33:40;;;;;;;6.27;2.97;;;;;;;14.38;71.83;98602.13;5055759;28;20201;-62
2023/10/31 06:36:09;;;;;;;3.27;2.63;;;;;;;14.38;71.89;98593.50;5056819;28;20202;-70
2023/10/31 06:38:37;;;;;;;5.47;2.80;;;;;;;14.40;71.87;98602.06;5051417;28;20547;-67
2023/10/31 06:41:07;;;;;;;3.83;2.57;;;;;;;14.41;71.84;98591.59;5050457;28;20206;-61
2023/10/31 06:43:35;;;;;;;4.70;3.13;;;;;;;14.45;71.65;98602.66;5051479;28;20648;-65
2023/10/31 06:46:05;;;;;;;4.67;2.70;;;;;;;14.45;70.98;98594.88;5051423;28;20228;-70
2023/10/31 06:48:33;;;;;;;6.60;2.60;;;;;;;14.46;70.97;98589.59;5050957;28;20206;-70
2023/10/31 06:51:01;;;;;;;4.60;2.60;;;;;;;14.47;70.94;98586.13;5050845;28;20221;-70
2023/10/31 06:53:29;;;;;;;5.63;3.20;;;;;;;14.52;71.24;98595.44;5050846;28;20216;-68
2023/10/31 06:56:00;;;;;;;4.77;2.97;;;;;;;14.54;71.20;98602.22;5050600;28;20264;-69
2023/10/31 06:58:29;;;;;;;8.30;3.23;;;;;;;14.56;71.23;98602.16;5050831;28;20613;-68
2023/10/31 07:00:59;;;;;;;5.80;2.97;;;;;;;14.54;71.30;98601.38;5050566;28;20723;-68
2023/10/31 07:03:27;;;;;;;8.77;3.10;;;;;;;14.53;71.41;98576.38;5053984;28;20244;-68
2023/10/31 07:05:57;;;;;;;8.27;4.07;;;;;;;14.56;71.49;98582.25;5055153;28;20293;-68
2023/10/31 07:08:25;;;;;;;6.40;3.17;;;;;;;14.58;71.48;98569.19;5050893;28;20637;-69
2023/10/31 07:10:53;;;;;;;8.37;3.30;;;;;;;14.59;71.24;98568.28;5050545;28;20738;-67
2023/10/31 07:13:21;;;;;;;5.43;3.07;;;;;;;14.61;71.37;98574.22;5050338;28;20272;-68
2023/10/31 07:15:50;;;;;;;9.17;3.13;;;;;;;14.59;71.05;98578.66;5050199;28;20260;-68
2023/10/31 07:18:19;;;;;;;6.93;2.97;;;;;;;14.59;71.30;98573.47;5050073;28;20238;-68
2023/10/31 07:20:47;;;;;;;7.20;2.83;;;;;;;14.58;71.07;98564.00;5054352;28;20593;-70
2023/10/31 07:23:15;;;;;;;5.10;2.97;;;;;;;14.57;70.70;98565.75;5054122;28;20205;-68
2023/10/31 07:25:43;;;;;;;5.03;2.80;;;;;;;14.61;70.63;98567.28;5053844;28;20225;-72
2023/10/31 07:28:11;;;;;;;5.30;2.77;;;;;;;14.63;70.43;98554.25;5057169;28;20201;-68
2023/10/31 07:30:40;;;;;;;11.07;3.07;;;;;;;14.68;70.15;98544.47;5053919;28;20255;-69
2023/10/31 07:33:09;;;;;;;7.10;3.37;;;;;;;14.68;69.96;98534.94;5053872;28;20210;-67
2023/10/31 07:35:37;;;;;;;4.83;3.00;;;;;;;14.69;69.88;98530.59;5054216;28;20224;-69
2023/10/31 07:38:05;;;;;;;4.23;2.77;;;;;;;14.74;69.77;98532.03;5054158;28;20233;-69
2023/10/31 07:40:33;;;;;;;4.37;2.90;;;;;;;14.77;69.48;98532.81;5040375;28;20199;-70
2023/10/31 07:43:01;;;;;;;7.63;3.17;;;;;;;14.80;69.63;98537.81;5053706;28;20212;-68
2023/10/31 07:45:29;;;;;;;6.07;2.67;;;;;;;14.77;69.10;98528.44;5053970;28;20288;-71
2023/10/31 07:47:57;;;;;;;5.87;2.27;;;;;;;14.78;69.07;98531.88;5054082;28;20263;-67
2023/10/31 07:50:27;;;;;;;6.23;2.80;;;;;;;14.78;69.00;98539.66;5053809;28;20291;-68
2023/10/31 07:52:55;;;;;;;4.63;3.10;;;;;;;14.78;69.03;98543.09;5039752;28;20202;-71
2023/10/31 07:55:23;;;;;;;6.00;2.63;;;;;;;14.80;68.92;98556.81;5054032;28;20566;-70
2023/10/31 07:57:51;;;;;;;7.63;3.13;;;;;;;14.82;68.75;98548.94;5054570;28;20213;-67
2023/10/31 08:00:19;;;;;;;3.53;2.87;;;;;;;14.85;68.89;98541.00;5061991;28;20255;-68
2023/10/31 08:02:47;;;;;;;5.40;2.90;;;;;;;14.85;69.17;98531.47;5053135;28;20206;-70
2023/10/31 08:05:15;;;;;;;6.03;2.63;;;;;;;14.86;69.50;98520.16;5052232;28;20233;-67
2023/10/31 08:07:45;;;;;;;4.07;3.07;;;;;;;14.88;69.37;98513.16;5053583;28;20611;-70
2023/10/31 08:10:13;;;;;;;5.97;3.27;;;;;;;14.89;69.54;98511.41;5053160;28;20230;-68
2023/10/31 08:12:41;;;;;;;5.57;2.80;;;;;;;14.90;69.52;98508.72;5053456;28;20594;-68
2023/10/31 08:15:10;;;;;;;5.60;2.60;;;;;;;14.90;69.44;98511.31;5053540;28;20213;-68
2023/10/31 08:17:38;;;;;;;5.07;2.40;;;;;;;14.91;69.35;98502.63;5052992;28;20242;-70
2023/10/31 08:20:07;;;;;;;3.00;2.55;;;;;;;14.94;68.86;98505.03;5053327;28;20379;-69
2023/10/31 08:22:35;;;;;;;3.37;2.40;;;;;;;14.98;68.56;98503.97;5053319;28;20202;-69
2023/10/31 08:25:05;;;;;;;5.07;2.23;;;;;;;15.02;68.44;98498.59;5052892;28;20209;-69
2023/10/31 08:27:33;;;;;;;6.20;2.60;;;;;;;15.08;68.14;98512.06;5052711;28;20611;-70
2023/10/31 08:30:01;;;;;;;4.00;2.40;;;;;;;15.11;67.51;98509.31;5052080;28;20198;-61
2023/10/31 08:32:31;;;;;;;5.87;2.30;;;;;;;15.17;67.44;98503.78;5052759;28;20649;-62
2023/10/31 08:35:00;;;;;;;4.53;2.53;;;;;;;15.22;67.39;98498.34;5052701;28;20206;-60
2023/10/31 08:37:28;;;;;;;5.90;2.97;;;;;;;15.27;67.59;98475.56;5052615;28;20237;-61
2023/10/31 08:39:56;;;;;;;6.77;2.80;;;;;;;15.33;67.32;98475.22;5052373;28;20198;-61
2023/10/31 08:42:25;;;;;;;5.40;2.93;;;;;;;15.42;67.46;98485.06;5052946;28;20198;-67
2023/10/31 08:44:53;;;;;;;5.37;2.60;;;;;;;15.49;66.89;98493.34;5052604;28;20210;-71
2023/10/31 08:47:21;;;;;;;6.93;2.97;;;;;;;15.55;66.87;98493.03;5052481;28;20206;-67
2023/10/31 08:49:49;;;;;;;4.80;3.00;;;;;;;15.62;66.41;98498.72;5052481;28;20205;-68
2023/10/31 08:52:17;;;;;;;4.65;2.45;;;;;;;15.67;66.35;98497.53;5052539;28;20217;-67
2023/10/31 08:54:45;;;;;;;7.35;2.67;;;;;;;15.71;65.88;98503.41;5052536;28;20565;-68
2023/10/31 08:57:13;;;;;;;8.30;4.30;;;;;;;15.71;65.29;98485.22;5051937;28;20633;-70
2023/10/31 08:59:43;;;;;;;5.13;2.30;;;;;;;15.72;65.14;98491.25;5052240;28;20218;-70
2023/10/31 09:02:11;;;;;;;6.15;2.35;;;;;;;15.72;64.76;98494.66;5051934;28;20204;-70
2023/10/31 09:04:39;;;;;;;3.97;2.60;;;;;;;15.73;64.99;98493.78;5050817;28;20206;-69
2023/10/31 09:07:07;;;;;;;8.48;2.85;;;;;;;15.78;64.75;98494.34;5052784;28;20641;-69
2023/10/31 09:09:35;;;;;;;8.02;2.80;;;;;;;15.81;64.99;98495.91;5051571;28;20252;-71
2023/10/31 09:12:03;;;;;;;5.03;2.25;;;;;;;15.78;64.71;98493.50;5052123;28;20304;-70
2023/10/31 09:14:31;;;;;;;9.65;3.33;;;;;;;15.79;64.76;98495.16;5051767;28;20270;-68
2023/10/31 09:17:00;;;;;;;6.93;2.47;;;;;;;15.80;64.71;98489.91;5052001;28;20238;-70
2023/10/31 09:19:28;;;;;;;3.72;2.38;;;;;;;15.81;64.13;98482.94;5051629;28;20264;-67
2023/10/31 09:21:56;;;;;;;5.72;2.28;;;;;;;15.80;64.07;98499.44;5051889;28;20210;-69
2023/10/31 09:24:24;;;;;;;3.83;2.38;;;;;;;15.78;64.26;98488.31;5052184;28;21061;-68
2023/10/31 09:26:52;;;;;;;4.93;2.53;;;;;;;15.80;64.37;98497.69;5052021;28;20610;-70
2023/10/31 09:29:20;;;;;;;7.33;2.63;;;;;;;15.82;64.31;98490.63;5052331;28;20680;-69
2023/10/31 09:31:56;;;;;;;5.85;2.47;;;;;;;15.79;64.19;98501.19;5051796;28;20696;-69
2023/10/31 09:34:26;;;;;;;4.95;2.65;;;;;;;15.81;64.05;98494.16;5051231;28;20544;-69
2023/10/31 09:36:54;;;;;;;6.63;2.55;;;;;;;15.84;64.10;98495.75;5051482;28;20210;-68
2023/10/31 09:39:22;;;;;;;6.72;2.38;;;;;;;15.85;63.94;98490.47;5051069;28;20210;-70
2023/10/31 09:41:51;;;;;;;6.22;2.92;;;;;;;15.85;64.01;98511.22;5049069;28;20210;-69
2023/10/31 09:44:21;;;;;;;7.85;2.60;;;;;;;15.83;63.99;98502.72;5051154;28;20289;-67
2023/10/31 09:46:52;;;;;;;3.83;2.38;;;;;;;15.81;64.07;98507.16;5063182;28;20205;-68
2023/10/31 09:49:21;;;;;;;5.70;2.85;;;;;;;15.82;63.94;98514.00;5052439;28;20252;-69
2023/10/31 09:51:50;;;;;;;5.90;2.88;;;;;;;15.82;63.74;98520.97;5051415;28;20751;-64
2023/10/31 09:54:19;;;;;;;3.80;2.80;;;;;;;15.83;63.51;98513.09;5050915;28;20197;-63
2023/10/31 09:56:46;;;;;;;6.77;2.57;;;;;;;15.89;63.39;98512.72;5050480;28;20241;-62
2023/10/31 09:59:16;;;;;;;3.88;2.03;;;;;;;15.94;63.20;98515.91;5051855;28;20656;-63
2023/10/31 10:01:44;;;;;;;4.72;2.78;;;;;;;15.98;63.06;98506.19;5049858;28;20205;-63
2023/10/31 10:04:12;;;;;;;5.57;2.60;;;;;;;16.05;62.79;98510.06;5050617;28;20210;-61
2023/10/31 10:06:53;;;;;;;3.17;2.60;;;;;;;16.08;62.62;98504.69;5053783;28;20307;-68
2023/10/31 10:09:22;;;;;;;4.43;2.60;;;;;;;16.14;62.19;98500.91;5055559;28;20282;-61
2023/10/31 10:11:50;;;;;;;6.15;3.00;;;;;;;16.15;61.97;98507.78;5050957;28;20225;-63
2023/10/31 10:14:18;;;;;;;5.32;2.67;;;;;;;16.16;61.76;98506.84;5050872;28;20547;-62
2023/10/31 10:16:46;;;;;;;4.90;3.10;;;;;;;16.16;61.97;98499.03;5050598;28;20248;-64
2023/10/31 10:19:19;;;;;;;5.30;2.83;;;;;;;16.19;61.52;98504.91;5050048;28;20205;-64
2023/10/31 10:21:48;;;;;;;8.15;2.95;;;;;;;16.22;61.60;98503.88;5063974;28;20217;-64
2023/10/31 10:24:19;;;;;;;6.53;2.83;;;;;;;16.26;61.78;98513.16;5051344;28;20559;-62
2023/10/31 10:26:47;;;;;;;5.22;2.53;;;;;;;16.29;61.32;98504.38;5050593;28;20210;-64
2023/10/31 10:29:15;;;;;;;5.20;3.00;;;;;;;16.32;61.32;98509.38;5039702;28;20666;-62
2023/10/31 10:31:44;;;;;;;3.80;2.88;;;;;;;16.33;61.02;98511.88;5047939;28;20222;-64
2023/10/31 10:34:16;;;;;;;8.15;3.10;;;;;;;16.38;61.42;98511.59;5050631;28;20551;-63
2023/10/31 10:36:48;;;;;;;8.13;2.42;;;;;;;16.40;61.65;98505.38;5049785;28;20574;-61
2023/10/31 10:39:21;;;;;;;7.22;2.70;;;;;;;16.48;61.19;98517.09;5050917;28;20271;-62
2023/10/31 10:41:55;;;;;;;4.68;2.75;;;;;;;16.52;60.80;98505.56;5050320;28;20202;-64
2023/10/31 10:44:33;;;;;;;5.57;2.70;;;;;;;16.60;60.80;98513.75;5051002;28;20640;-63
2023/10/31 10:47:03;;;;;;;3.47;2.65;;;;;;;16.67;60.58;98510.69;5050482;28;20523;-63
2023/10/31 10:49:35;;;;;;;7.80;2.78;;;;;;;16.70;60.58;98504.47;5037016;28;20782;-62
2023/10/31 10:52:17;;;;;;;5.50;3.13;;;;;;;16.77;60.55;98503.19;5050476;28;20597;-62
2023/10/31 10:54:53;;;;;;;4.63;2.80;;;;;;;16.75;60.67;98496.41;5062451;28;20727;-61
2023/10/31 10:57:32;;;;;;;4.75;2.50;;;;;;;16.76;60.76;98511.94;5054610;28;20212;-63
2023/10/31 11:00:04;;;;;;;6.30;3.03;;;;;;;16.76;60.96;98511.09;5054631;28;20205;-62
2023/10/31 11:02:33;;;;;;;6.90;3.40;;;;;;;16.77;61.19;98515.34;5054622;28;20591;-62
2023/10/31 11:05:03;;;;;;;6.28;3.00;;;;;;;16.78;61.27;98523.06;5054187;28;20297;-62
2023/10/31 11:07:33;;;;;;;7.45;3.10;;;;;;;16.77;61.47;98524.00;5052459;28;20696;-64
2023/10/31 11:10:04;;;;;;;5.28;2.35;;;;;;;16.80;61.68;98520.38;5058719;28;20210;-63
2023/10/31 11:12:33;;;;;;;8.68;2.38;;;;;;;16.82;61.76;98524.53;5054406;28;20586;-64
2023/10/31 11:15:02;;;;;;;9.05;2.72;;;;;;;16.85;61.96;98519.16;5040225;28;20246;-63
2023/10/31 11:17:34;;;;;;;5.50;2.25;;;;;;;16.89;61.94;98523.22;5054033;28;20238;-63
2023/10/31 11:20:03;;;;;;;9.07;1.85;;;;;;;16.93;62.13;98531.69;5053781;28;20202;-62
2023/10/31 11:22:39;;;;;;;4.30;2.33;;;;;;;16.94;62.13;98532.50;5054232;28;20208;-61
2023/10/31 11:25:10;;;;;;;2.78;2.00;;;;;;;16.99;62.26;98543.50;5053878;28;20197;-61
2023/10/31 11:27:51;;;;;;;5.43;2.03;;;;;;;16.97;62.32;98527.13;5053970;28;20205;-65
2023/10/31 11:30:23;;;;;;;3.28;2.05;;;;;;;16.98;62.68;98532.25;5054156;28;20213;-66
2023/10/31 11:32:53;;;;;;;5.47;2.00;;;;;;;16.97;62.66;98532.31;5053637;28;20218;-62
2023/10/31 11:35:23;;;;;;;3.95;2.17;;;;;;;16.99;62.84;98536.50;5053578;28;20229;-62
2023/10/31 11:38:02;;;;;;;3.08;1.77;;;;;;;17.00;63.12;98547.75;5053118;28;20221;-65
2023/10/31 11:40:33;;;;;;;6.25;2.05;;;;;;;16.97;63.25;98548.78;5053705;28;20231;-63